createdAt,value
2019-02-08T00:01:29.337Z,7.50
2019-02-08T00:03:58.474Z,7.50
2019-02-08T00:06:28.021Z,7.50
2019-02-08T00:08:57.101Z,7.60
2019-02-08T00:11:26.275Z,7.50
2019-02-08T00:13:55.150Z,7.50
2019-02-08T00:16:26.200Z,7.50
2019-02-08T00:18:56.269Z,7.50
2019-02-08T00:21:25.391Z,7.50
2019-02-08T00:23:54.479Z,7.60
2019-02-08T00:26:23.376Z,7.60
2019-02-08T00:28:52.850Z,7.50
2019-02-08T00:31:22.783Z,7.40
2019-02-08T00:33:51.592Z,7.40
2019-02-08T00:36:20.473Z,7.30
2019-02-08T00:38:49.564Z,7.30
2019-02-08T00:41:18.443Z,7.20
2019-02-08T00:43:47.334Z,7.20
2019-02-08T00:46:16.370Z,7.10
2019-02-08T00:48:45.543Z,7.00
2019-02-08T00:51:14.536Z,6.90
2019-02-08T00:53:43.545Z,6.80
2019-02-08T00:56:12.472Z,6.80
2019-02-08T00:58:41.356Z,6.70
2019-02-08T01:01:10.738Z,6.70
2019-02-08T01:03:39.673Z,6.60
2019-02-08T01:06:08.640Z,6.60
2019-02-08T01:08:37.657Z,6.50
2019-02-08T01:11:06.597Z,6.50
2019-02-08T01:13:35.484Z,6.40
2019-02-08T01:16:05.219Z,6.40
2019-02-08T01:18:34.405Z,6.40
2019-02-08T01:21:03.679Z,6.40
2019-02-08T01:23:32.712Z,6.40
2019-02-08T01:26:01.517Z,6.40
2019-02-08T01:28:30.494Z,6.40
2019-02-08T01:30:59.563Z,6.40
2019-02-08T01:33:28.507Z,6.40
2019-02-08T01:35:57.447Z,6.50
2019-02-08T01:38:26.489Z,6.50
2019-02-08T01:40:55.452Z,6.50
2019-02-08T01:43:24.441Z,6.60
2019-02-08T01:45:53.439Z,6.60
2019-02-08T01:48:23.838Z,6.60
2019-02-08T01:50:52.778Z,6.50
2019-02-08T01:53:21.922Z,6.50
2019-02-08T01:55:50.728Z,6.50
2019-02-08T01:58:19.664Z,6.60
2019-02-08T02:00:48.765Z,6.60
2019-02-08T02:03:17.736Z,6.60
2019-02-08T02:05:46.691Z,6.60
2019-02-08T02:08:15.857Z,6.60
2019-02-08T02:10:45.494Z,6.50
2019-02-08T02:13:14.345Z,6.50
2019-02-08T02:15:43.408Z,6.50
2019-02-08T02:18:13.039Z,6.40
2019-02-08T02:20:42.773Z,6.40
2019-02-08T02:23:13.893Z,6.30
2019-02-08T02:25:42.880Z,6.30
2019-02-08T02:28:11.826Z,6.30
2019-02-08T02:30:40.893Z,6.30
2019-02-08T02:33:11.271Z,6.30
2019-02-08T02:35:40.223Z,6.40
2019-02-08T02:38:09.408Z,6.30
2019-02-08T02:40:38.445Z,6.30
2019-02-08T02:43:09.112Z,6.20
2019-02-08T02:45:39.052Z,6.20
2019-02-08T02:48:09.918Z,6.20
2019-02-08T02:50:38.985Z,6.20
2019-02-08T02:53:07.993Z,6.30
2019-02-08T02:55:37.080Z,6.30
2019-02-08T02:58:06.481Z,6.30
2019-02-08T03:00:38.568Z,6.40
2019-02-08T03:03:07.597Z,6.40
2019-02-08T03:05:36.576Z,6.40
2019-02-08T03:08:06.851Z,6.40
2019-02-08T03:10:35.933Z,6.50
2019-02-08T03:13:05.253Z,6.50
2019-02-08T03:15:34.365Z,6.50
2019-02-08T03:18:03.413Z,6.50
2019-02-08T03:20:32.348Z,6.60
2019-02-08T03:23:02.028Z,6.60
2019-02-08T03:25:31.222Z,6.70
2019-02-08T03:28:00.265Z,6.70
2019-02-08T03:30:33.835Z,6.80
2019-02-08T03:33:02.728Z,6.80
2019-02-08T03:35:31.724Z,6.80
2019-02-08T03:38:01.020Z,6.80
2019-02-08T03:40:30.129Z,6.80
2019-02-08T03:42:59.452Z,6.80
2019-02-08T03:45:32.017Z,6.90
2019-02-08T03:48:00.962Z,6.90
2019-02-08T03:50:30.557Z,6.80
2019-02-08T03:52:59.693Z,6.90
2019-02-08T03:55:28.629Z,6.90
2019-02-08T03:57:57.495Z,6.80
2019-02-08T04:00:33.520Z,6.80
2019-02-08T04:03:02.470Z,6.80
2019-02-08T04:05:31.460Z,6.80
2019-02-08T04:08:00.449Z,6.80
2019-02-08T04:10:29.571Z,6.80
2019-02-08T04:12:58.528Z,6.90
2019-02-08T04:15:27.633Z,6.90
2019-02-08T04:17:56.704Z,6.90
2019-02-08T04:20:28.820Z,6.90
2019-02-08T04:22:58.132Z,6.90
2019-02-08T04:25:27.143Z,6.90
2019-02-08T04:27:56.258Z,6.90
2019-02-08T04:30:26.981Z,6.90
2019-02-08T04:32:56.228Z,6.90
2019-02-08T04:35:25.408Z,6.90
2019-02-08T04:37:54.292Z,6.90
2019-02-08T04:40:23.636Z,6.90
2019-02-08T04:42:52.832Z,6.90
2019-02-08T04:45:21.883Z,6.90
2019-02-08T04:47:50.941Z,6.90
2019-02-08T04:50:21.475Z,6.90
2019-02-08T04:52:50.657Z,6.90
2019-02-08T04:55:21.965Z,6.90
2019-02-08T04:57:50.877Z,6.90
2019-02-08T05:00:27.876Z,7.00
2019-02-08T05:02:56.827Z,7.00
2019-02-08T05:05:26.049Z,7.00
2019-02-08T05:07:55.267Z,7.00
2019-02-08T05:10:25.642Z,7.00
2019-02-08T05:12:54.569Z,7.00
2019-02-08T05:15:23.826Z,7.10
2019-02-08T05:17:52.892Z,7.10
2019-02-08T05:20:23.595Z,7.10
2019-02-08T05:22:53.066Z,7.20
2019-02-08T05:25:22.240Z,7.20
2019-02-08T05:27:52.656Z,7.20
2019-02-08T05:30:27.044Z,7.20
2019-02-08T05:32:56.342Z,7.20
2019-02-08T05:35:25.914Z,7.20
2019-02-08T05:37:55.315Z,7.20
2019-02-08T05:40:24.575Z,7.20
2019-02-08T05:42:53.935Z,7.20
2019-02-08T05:45:23.457Z,7.20
2019-02-08T05:47:52.338Z,7.20
2019-02-08T05:50:22.973Z,7.20
2019-02-08T05:52:52.585Z,7.20
2019-02-08T05:55:23.856Z,7.20
2019-02-08T05:57:53.282Z,7.30
2019-02-08T06:00:27.837Z,7.30
2019-02-08T06:03:00.869Z,7.30
2019-02-08T06:05:30.221Z,7.30
2019-02-08T06:07:59.577Z,7.30
2019-02-08T06:10:30.421Z,7.30
2019-02-08T06:12:59.320Z,7.30
2019-02-08T06:15:28.253Z,7.40
2019-02-08T06:17:57.364Z,7.40
2019-02-08T06:20:26.496Z,7.40
2019-02-08T06:22:55.491Z,7.40
2019-02-08T06:25:24.901Z,7.40
2019-02-08T06:27:53.968Z,7.40
2019-02-08T06:30:23.001Z,7.40
2019-02-08T06:32:52.273Z,7.50
2019-02-08T06:35:22.418Z,7.50
2019-02-08T06:37:51.616Z,7.50
2019-02-08T06:40:22.963Z,7.40
2019-02-08T06:42:54.662Z,7.50
2019-02-08T06:45:24.458Z,7.50
2019-02-08T06:47:53.685Z,7.50
2019-02-08T06:50:23.631Z,7.50
2019-02-08T06:52:53.057Z,7.50
2019-02-08T06:55:22.657Z,7.50
2019-02-08T06:58:01.058Z,7.50
2019-02-08T07:00:47.772Z,7.50
2019-02-08T07:03:41.993Z,7.50
2019-02-08T07:06:23.099Z,7.50
2019-02-08T07:09:14.442Z,7.50
2019-02-08T07:11:59.377Z,7.60
2019-02-08T07:14:47.575Z,7.50
2019-02-08T07:17:34.175Z,7.60
2019-02-08T07:20:14.616Z,7.60
2019-02-08T07:23:01.184Z,7.60
2019-02-08T07:25:48.255Z,7.60
2019-02-08T07:28:23.224Z,7.60
2019-02-08T07:31:17.318Z,7.60
2019-02-08T07:34:05.689Z,7.60
2019-02-08T07:36:53.950Z,7.60
2019-02-08T07:39:36.281Z,7.60
2019-02-08T07:42:24.496Z,7.60
2019-02-08T07:45:05.116Z,7.60
2019-02-08T07:48:08.676Z,7.70
2019-02-08T07:50:55.760Z,7.70
2019-02-08T07:54:04.191Z,7.70
2019-02-08T07:56:47.203Z,7.70
2019-02-08T07:59:28.218Z,7.70
2019-02-08T08:02:22.238Z,7.80
2019-02-08T08:05:08.898Z,7.80
2019-02-08T08:07:55.679Z,7.80
2019-02-08T08:10:48.473Z,7.80
2019-02-08T08:13:28.213Z,7.80
2019-02-08T08:16:16.505Z,7.80
2019-02-08T08:19:06.656Z,7.80
2019-02-08T08:21:56.083Z,7.80
2019-02-08T08:24:52.105Z,7.80
2019-02-08T08:27:28.649Z,7.90
2019-02-08T08:30:15.753Z,7.90
2019-02-08T08:32:57.636Z,7.90
2019-02-08T08:36:11.223Z,8.00
2019-02-08T08:39:24.452Z,8.00
2019-02-08T08:42:25.203Z,8.00
2019-02-08T08:45:50.200Z,8.10
2019-02-08T08:48:38.235Z,8.10
2019-02-08T08:51:34.555Z,8.10
2019-02-08T08:54:29.388Z,8.10
2019-02-08T08:57:38.109Z,8.20
2019-02-08T09:00:21.843Z,8.30
2019-02-08T09:03:25.441Z,8.30
2019-02-08T09:06:25.709Z,8.30
2019-02-08T09:09:28.774Z,8.30
2019-02-08T09:12:19.183Z,8.30
2019-02-08T09:15:14.580Z,8.30
2019-02-08T09:18:24.834Z,8.30
2019-02-08T09:21:42.094Z,8.30
2019-02-08T09:24:46.718Z,8.30
2019-02-08T09:27:51.129Z,8.40
2019-02-08T09:30:43.487Z,8.40
2019-02-08T09:34:05.485Z,8.50
2019-02-08T09:37:14.236Z,8.50
2019-02-08T09:40:11.700Z,8.50
2019-02-08T09:43:25.059Z,8.50
2019-02-08T09:46:41.183Z,8.60
2019-02-08T09:49:53.484Z,8.60
2019-02-08T09:53:15.534Z,8.60
2019-02-08T09:56:36.400Z,8.60
2019-02-08T09:59:48.079Z,8.60
2019-02-08T10:02:51.979Z,8.70
2019-02-08T10:06:05.151Z,8.80
2019-02-08T10:09:22.256Z,8.80
2019-02-08T10:12:32.549Z,8.80
2019-02-08T10:15:37.081Z,8.80
2019-02-08T10:18:42.952Z,8.90
2019-02-08T10:21:40.077Z,8.90
2019-02-08T10:24:51.837Z,8.90
2019-02-08T10:28:10.788Z,8.90
2019-02-08T10:31:08.527Z,9.00
2019-02-08T10:34:13.137Z,9.00
2019-02-08T10:37:18.562Z,9.10
2019-02-08T10:40:11.964Z,9.10
2019-02-08T10:43:20.724Z,9.10
2019-02-08T10:46:22.813Z,9.10
2019-02-08T10:49:37.933Z,9.10
2019-02-08T10:52:52.493Z,9.20
2019-02-08T10:56:15.111Z,9.20
2019-02-08T10:59:16.185Z,9.20
2019-02-08T11:02:24.375Z,9.20
2019-02-08T11:05:26.189Z,9.20
2019-02-08T11:08:24.836Z,9.20
2019-02-08T11:11:23.064Z,9.30
2019-02-08T11:14:27.846Z,9.30
2019-02-08T11:17:59.998Z,9.30
2019-02-08T11:20:47.333Z,9.30
2019-02-08T11:23:27.642Z,9.40
2019-02-08T11:26:09.620Z,9.40
2019-02-08T11:28:50.053Z,9.40
2019-02-08T11:31:33.431Z,9.40
2019-02-08T11:37:13.877Z,9.40
2019-02-08T11:39:54.464Z,9.50
2019-02-08T11:42:35.360Z,9.50
2019-02-08T11:45:15.753Z,9.50
2019-02-08T11:47:45.056Z,9.50
2019-02-08T11:50:33.184Z,9.60
2019-02-08T11:53:21.352Z,9.60
2019-02-08T11:56:09.481Z,9.60
2019-02-08T11:58:50.673Z,9.70
2019-02-08T12:01:36.941Z,9.70
2019-02-08T12:04:17.529Z,9.70
2019-02-08T12:06:58.017Z,9.70
2019-02-08T12:09:38.684Z,9.70
2019-02-08T12:12:19.349Z,9.80
2019-02-08T12:17:59.225Z,9.70
2019-02-08T12:20:39.664Z,9.70
2019-02-08T12:23:20.564Z,9.70
2019-02-08T12:26:01.168Z,9.70
2019-02-08T12:28:45.549Z,9.70
2019-02-08T12:31:26.376Z,9.80
2019-02-08T12:34:07.409Z,9.80
2019-02-08T12:36:47.734Z,9.80
2019-02-08T12:39:28.524Z,9.90
2019-02-08T12:41:57.353Z,9.80
2019-02-08T12:44:45.765Z,9.90
2019-02-08T12:47:33.757Z,9.90
2019-02-08T12:50:15.622Z,10.00
2019-02-08T12:52:44.637Z,10.10
2019-02-08T12:55:32.919Z,10.10
2019-02-08T12:58:21.008Z,10.10
2019-02-08T13:01:01.573Z,10.10
2019-02-08T13:03:42.926Z,10.10
2019-02-08T13:06:25.756Z,10.10
2019-02-08T13:09:07.372Z,10.20
2019-02-08T13:11:48.516Z,10.20
2019-02-08T13:14:29.568Z,10.20
2019-02-08T13:17:09.033Z,10.30
2019-02-08T13:19:57.076Z,10.30
2019-02-08T13:22:37.860Z,10.30
2019-02-08T13:25:18.551Z,10.30
2019-02-08T13:27:59.360Z,10.30
2019-02-08T13:30:29.343Z,10.30
2019-02-08T13:33:17.589Z,10.30
2019-02-08T13:39:28.728Z,10.20
2019-02-08T13:42:09.521Z,10.30
2019-02-08T13:44:50.414Z,10.20
2019-02-08T13:47:31.729Z,10.20
2019-02-08T13:50:12.467Z,10.20
2019-02-08T13:52:53.057Z,10.20
2019-02-08T13:55:33.952Z,10.30
2019-02-08T13:58:14.518Z,10.20
2019-02-08T14:00:55.769Z,10.30
2019-02-08T14:03:24.936Z,10.30
2019-02-08T14:06:13.453Z,10.20
2019-02-08T14:08:54.544Z,10.30
2019-02-08T14:11:35.069Z,10.30
2019-02-08T14:14:15.745Z,10.30
2019-02-08T14:16:57.093Z,10.30
2019-02-08T14:19:26.005Z,10.30
2019-02-08T14:22:14.400Z,10.40
2019-02-08T14:24:55.302Z,10.30
2019-02-08T14:27:25.125Z,10.40
2019-02-08T14:30:36.592Z,10.40
2019-02-08T14:33:17.612Z,10.30
2019-02-08T14:35:59.027Z,10.30
2019-02-08T14:38:40.071Z,10.40
2019-02-08T14:41:21.007Z,10.30
2019-02-08T14:44:02.196Z,10.40
2019-02-08T14:46:42.526Z,10.40
2019-02-08T14:49:23.288Z,10.40
2019-02-08T14:52:04.129Z,10.40
2019-02-08T14:54:45.285Z,10.40
2019-02-08T14:57:26.708Z,10.40
2019-02-08T15:00:07.729Z,10.40
2019-02-08T15:02:48.141Z,10.40
2019-02-08T15:05:29.084Z,10.40
2019-02-08T15:08:09.721Z,10.40
2019-02-08T15:10:50.616Z,10.40
2019-02-08T15:16:50.711Z,10.40
2019-02-08T15:19:32.805Z,10.40
2019-02-08T15:22:13.493Z,10.40
2019-02-08T15:24:46.313Z,10.40
2019-02-08T15:27:37.452Z,10.40
2019-02-08T15:39:43.269Z,10.40
2019-02-08T15:42:31.877Z,10.40
2019-02-08T15:45:12.646Z,10.40
2019-02-08T15:47:53.234Z,10.40
2019-02-08T15:50:34.173Z,10.40
2019-02-08T15:56:32.745Z,10.40
2019-02-08T15:59:13.246Z,10.40
2019-02-08T16:01:54.837Z,10.30
2019-02-08T16:04:34.182Z,10.30
2019-02-08T16:07:22.516Z,10.30
2019-02-08T16:10:03.650Z,10.30
2019-02-08T16:12:44.558Z,10.30
2019-02-08T16:15:25.668Z,10.30
2019-02-08T16:18:06.751Z,10.30
2019-02-08T16:20:47.982Z,10.30
2019-02-08T16:23:28.780Z,10.30
2019-02-08T16:25:57.901Z,10.30
2019-02-08T16:28:46.217Z,10.30
2019-02-08T16:31:34.205Z,10.30
2019-02-08T16:34:15.312Z,10.30
2019-02-08T16:37:03.195Z,10.30
2019-02-08T16:39:39.236Z,10.30
2019-02-08T16:42:19.849Z,10.30
2019-02-08T16:45:00.873Z,10.20
2019-02-08T16:47:41.604Z,10.20
2019-02-08T16:50:23.517Z,10.20
2019-02-08T16:53:04.049Z,10.20
2019-02-08T16:55:45.077Z,10.20
2019-02-08T16:58:25.844Z,10.20
2019-02-08T17:01:06.659Z,10.20
2019-02-08T17:03:47.333Z,10.20
2019-02-08T17:06:27.946Z,10.20
2019-02-08T17:08:57.204Z,10.30
2019-02-08T17:11:45.604Z,10.30
2019-02-08T17:17:36.009Z,10.30
2019-02-08T17:20:16.653Z,10.30
2019-02-08T17:22:58.841Z,10.30
2019-02-08T17:25:39.845Z,10.30
2019-02-08T17:28:20.718Z,10.30
2019-02-08T17:31:01.699Z,10.40
2019-02-08T17:33:30.828Z,10.30
2019-02-08T17:36:12.118Z,10.40
2019-02-08T17:38:53.410Z,10.40
2019-02-08T17:41:33.855Z,10.40
2019-02-08T17:44:14.978Z,10.40
2019-02-08T17:46:55.388Z,10.40
2019-02-08T17:49:36.269Z,10.40
2019-02-08T17:52:16.055Z,10.40
2019-02-08T17:58:12.717Z,10.40
2019-02-08T18:01:01.856Z,10.40
2019-02-08T18:03:49.969Z,10.50
2019-02-08T18:06:31.001Z,10.40
2019-02-08T18:09:11.753Z,10.40
2019-02-08T18:11:53.199Z,10.40
2019-02-08T18:14:33.934Z,10.40
2019-02-08T18:17:14.586Z,10.40
2019-02-08T18:19:55.207Z,10.50
2019-02-08T18:22:24.134Z,10.40
2019-02-08T18:25:12.792Z,10.50
2019-02-08T18:27:41.773Z,10.50
2019-02-08T18:30:29.937Z,10.50
2019-02-08T18:33:10.271Z,10.60
2019-02-08T18:35:51.282Z,10.50
2019-02-08T18:38:32.001Z,10.50
2019-02-08T18:41:12.844Z,10.40
2019-02-08T18:43:53.370Z,10.40
2019-02-08T18:46:22.427Z,10.40
2019-02-08T18:48:51.256Z,10.40
2019-02-08T18:51:20.055Z,10.40
2019-02-08T18:54:08.326Z,10.30
2019-02-08T18:56:56.424Z,10.30
2019-02-08T18:59:44.693Z,10.30
2019-02-08T19:02:25.540Z,10.30
2019-02-08T19:05:06.575Z,10.30
2019-02-08T19:07:49.683Z,10.30
2019-02-08T19:10:30.521Z,10.20
2019-02-08T19:13:10.996Z,10.10
2019-02-08T19:15:52.169Z,10.00
2019-02-08T19:18:33.274Z,9.80
2019-02-08T19:21:03.044Z,9.90
2019-02-08T19:23:51.069Z,9.90
2019-02-08T19:26:20.450Z,9.80
2019-02-08T19:29:08.967Z,9.80
2019-02-08T19:31:57.420Z,9.70
2019-02-08T19:34:47.000Z,9.70
2019-02-08T19:37:27.929Z,9.70
2019-02-08T19:40:08.977Z,9.60
2019-02-08T19:42:49.524Z,9.60
2019-02-08T19:45:30.340Z,9.60
2019-02-08T19:48:11.322Z,9.50
2019-02-08T19:50:52.821Z,9.60
2019-02-08T19:53:42.828Z,9.60
2019-02-08T19:56:25.497Z,9.60
2019-02-08T20:02:05.086Z,9.50
2019-02-08T20:04:47.526Z,9.50
2019-02-08T20:07:34.538Z,9.50
2019-02-08T20:13:33.753Z,9.50
2019-02-08T20:16:14.878Z,9.50
2019-02-08T20:18:56.295Z,9.50
2019-02-08T20:21:36.724Z,9.50
2019-02-08T20:24:18.166Z,9.40
2019-02-08T20:26:58.521Z,9.40
2019-02-08T20:29:39.389Z,9.40
2019-02-08T20:32:19.968Z,9.40
2019-02-08T20:35:00.977Z,9.40
2019-02-08T20:37:41.440Z,9.40
2019-02-08T20:40:26.630Z,9.40
2019-02-08T20:43:08.144Z,9.40
2019-02-08T20:45:48.808Z,9.40
2019-02-08T20:48:29.573Z,9.40
2019-02-08T20:51:11.597Z,9.40
2019-02-08T20:53:51.955Z,9.50
2019-02-08T20:56:35.807Z,9.50
2019-02-08T20:59:16.496Z,9.50
2019-02-08T21:01:57.647Z,9.50
2019-02-08T21:04:38.828Z,9.50
2019-02-08T21:07:19.707Z,9.50
2019-02-08T21:10:01.028Z,9.50
2019-02-08T21:12:41.531Z,9.50
2019-02-08T21:15:23.032Z,9.60
2019-02-08T21:18:03.912Z,9.50
2019-02-08T21:20:44.994Z,9.50
2019-02-08T21:23:25.762Z,9.50
2019-02-08T21:26:07.002Z,9.60
2019-02-08T21:28:36.100Z,9.50
2019-02-08T21:31:24.261Z,9.50
2019-02-08T21:34:12.361Z,9.50
2019-02-08T21:36:53.500Z,9.40
2019-02-08T21:39:22.668Z,9.40
2019-02-08T21:41:51.565Z,9.40
2019-02-08T21:44:39.829Z,9.40
2019-02-08T21:47:20.861Z,9.40
2019-02-08T21:50:02.045Z,9.40
2019-02-08T21:52:42.735Z,9.40
2019-02-08T21:55:23.668Z,9.40
2019-02-08T21:58:04.813Z,9.40
2019-02-08T22:00:46.208Z,9.40
2019-02-08T22:03:27.118Z,9.50
2019-02-08T22:06:09.080Z,9.50
2019-02-08T22:08:49.689Z,9.50
2019-02-08T22:11:30.389Z,9.50
2019-02-08T22:14:10.896Z,9.50
2019-02-08T22:16:51.456Z,9.60
2019-02-08T22:19:32.206Z,9.60
2019-02-08T22:25:26.437Z,9.40
2019-02-08T22:28:07.691Z,9.40
2019-02-08T22:33:47.753Z,9.40
2019-02-08T22:36:28.194Z,9.40
2019-02-08T22:39:09.030Z,9.40
2019-02-08T22:41:49.809Z,9.40
2019-02-08T22:44:30.689Z,9.40
2019-02-08T22:46:59.714Z,9.30
2019-02-08T22:49:48.284Z,9.30
2019-02-08T22:52:17.197Z,9.40
2019-02-08T22:54:58.171Z,9.40
2019-02-08T22:57:38.697Z,9.40
2019-02-08T23:00:19.652Z,9.40
2019-02-08T23:03:00.639Z,9.40
2019-02-08T23:05:45.617Z,9.40
2019-02-08T23:08:23.704Z,9.50
2019-02-08T23:11:04.388Z,9.50
2019-02-08T23:13:45.014Z,9.50
2019-02-08T23:16:25.823Z,9.50
2019-02-08T23:19:06.477Z,9.40
2019-02-08T23:21:35.721Z,9.40
2019-02-08T23:24:23.920Z,9.40
2019-02-08T23:27:13.374Z,9.40
2019-02-08T23:29:54.269Z,9.40
2019-02-08T23:32:35.633Z,9.40
2019-02-08T23:35:16.625Z,9.40
2019-02-08T23:37:57.306Z,9.40
2019-02-08T23:40:26.116Z,9.40
2019-02-08T23:43:14.391Z,9.40
2019-02-08T23:45:55.255Z,9.40
2019-02-08T23:48:36.404Z,9.40
2019-02-08T23:51:17.163Z,9.40
2019-02-08T23:53:58.368Z,9.40
2019-02-08T23:56:39.300Z,9.40
2019-02-08T23:59:20.233Z,9.50
